sensor_id;sensor_type;location;lat;lon;timestamp;P1;durP1;ratioP1;P2;durP2;ratioP2
69170;SDS011;56279;47.902;12.308;2023-08-01T00:00:02;5.10;;;2.00;;
69170;SDS011;56279;47.902;12.308;2023-08-01T00:02:13;6.05;;;2.30;;
69170;SDS011;56279;47.902;12.308;2023-08-01T00:04:14;6.35;;;2.50;;
69170;SDS011;56279;47.902;12.308;2023-08-01T00:06:15;4.63;;;2.30;;
69170;SDS011;56279;47.902;12.308;2023-08-01T00:08:16;5.45;;;2.40;;
69170;SDS011;56279;47.902;12.308;2023-08-01T00:10:18;4.32;;;2.30;;
69170;SDS011;56279;47.902;12.308;2023-08-01T00:12:19;5.55;;;2.50;;
69170;SDS011;56279;47.902;12.308;2023-08-01T00:14:20;5.63;;;2.50;;
69170;SDS011;56279;47.902;12.308;2023-08-01T00:16:24;5.10;;;2.70;;
69170;SDS011;56279;47.902;12.308;2023-08-01T00:18:26;6.03;;;2.92;;
69170;SDS011;56279;47.902;12.308;2023-08-01T00:20:27;5.22;;;2.50;;
69170;SDS011;56279;47.902;12.308;2023-08-01T00:22:28;4.90;;;1.85;;
69170;SDS011;56279;47.902;12.308;2023-08-01T00:24:30;5.38;;;2.38;;
69170;SDS011;56279;47.902;12.308;2023-08-01T00:26:31;5.13;;;2.30;;
69170;SDS011;56279;47.902;12.308;2023-08-01T00:28:33;5.47;;;2.20;;
69170;SDS011;56279;47.902;12.308;2023-08-01T00:30:35;4.55;;;2.25;;
69170;SDS011;56279;47.902;12.308;2023-08-01T00:32:36;4.72;;;2.05;;
69170;SDS011;56279;47.902;12.308;2023-08-01T00:34:38;5.07;;;2.72;;
69170;SDS011;56279;47.902;12.308;2023-08-01T00:36:39;6.17;;;2.77;;
69170;SDS011;56279;47.902;12.308;2023-08-01T00:38:41;4.38;;;2.42;;
69170;SDS011;56279;47.902;12.308;2023-08-01T00:40:44;5.63;;;2.35;;
69170;SDS011;56279;47.902;12.308;2023-08-01T00:42:45;4.97;;;2.42;;
69170;SDS011;56279;47.902;12.308;2023-08-01T00:44:46;5.00;;;2.35;;
69170;SDS011;56279;47.902;12.308;2023-08-01T00:46:49;5.77;;;2.50;;
69170;SDS011;56279;47.902;12.308;2023-08-01T00:48:51;5.80;;;2.67;;
69170;SDS011;56279;47.902;12.308;2023-08-01T00:50:55;5.60;;;2.97;;
69170;SDS011;56279;47.902;12.308;2023-08-01T00:53:00;5.20;;;2.40;;
69170;SDS011;56279;47.902;12.308;2023-08-01T00:55:02;5.70;;;3.00;;
69170;SDS011;56279;47.902;12.308;2023-08-01T00:57:03;5.07;;;2.50;;
69170;SDS011;56279;47.902;12.308;2023-08-01T00:59:06;5.93;;;2.67;;
69170;SDS011;56279;47.902;12.308;2023-08-01T01:01:07;5.43;;;2.33;;
69170;SDS011;56279;47.902;12.308;2023-08-01T01:03:08;4.90;;;2.70;;
69170;SDS011;56279;47.902;12.308;2023-08-01T01:05:10;5.30;;;2.72;;
69170;SDS011;56279;47.902;12.308;2023-08-01T01:07:11;7.03;;;2.80;;
69170;SDS011;56279;47.902;12.308;2023-08-01T01:09:17;6.82;;;2.80;;
69170;SDS011;56279;47.902;12.308;2023-08-01T01:11:19;5.03;;;2.85;;
69170;SDS011;56279;47.902;12.308;2023-08-01T01:13:21;6.20;;;2.35;;
69170;SDS011;56279;47.902;12.308;2023-08-01T01:15:22;5.47;;;2.55;;
69170;SDS011;56279;47.902;12.308;2023-08-01T01:17:23;5.93;;;2.47;;
69170;SDS011;56279;47.902;12.308;2023-08-01T01:19:25;4.75;;;2.53;;
69170;SDS011;56279;47.902;12.308;2023-08-01T01:21:26;6.00;;;2.33;;
69170;SDS011;56279;47.902;12.308;2023-08-01T01:23:28;7.72;;;3.10;;
69170;SDS011;56279;47.902;12.308;2023-08-01T01:25:30;6.43;;;2.63;;
69170;SDS011;56279;47.902;12.308;2023-08-01T01:27:33;4.53;;;2.20;;
69170;SDS011;56279;47.902;12.308;2023-08-01T01:29:37;5.15;;;2.28;;
69170;SDS011;56279;47.902;12.308;2023-08-01T01:31:41;5.93;;;2.65;;
69170;SDS011;56279;47.902;12.308;2023-08-01T01:33:42;4.78;;;2.40;;
69170;SDS011;56279;47.902;12.308;2023-08-01T01:35:44;5.75;;;2.53;;
69170;SDS011;56279;47.902;12.308;2023-08-01T01:37:45;5.20;;;2.13;;
69170;SDS011;56279;47.902;12.308;2023-08-01T01:39:46;4.78;;;2.28;;
69170;SDS011;56279;47.902;12.308;2023-08-01T01:41:48;7.78;;;2.50;;
69170;SDS011;56279;47.902;12.308;2023-08-01T01:43:49;7.47;;;3.13;;
69170;SDS011;56279;47.902;12.308;2023-08-01T01:45:51;5.07;;;2.42;;
69170;SDS011;56279;47.902;12.308;2023-08-01T01:47:52;5.90;;;2.17;;
69170;SDS011;56279;47.902;12.308;2023-08-01T01:49:54;5.30;;;2.47;;
69170;SDS011;56279;47.902;12.308;2023-08-01T01:51:55;4.70;;;2.22;;
69170;SDS011;56279;47.902;12.308;2023-08-01T01:53:56;5.18;;;2.20;;
69170;SDS011;56279;47.902;12.308;2023-08-01T01:55:57;4.95;;;2.50;;
69170;SDS011;56279;47.902;12.308;2023-08-01T01:57:59;4.73;;;2.33;;
69170;SDS011;56279;47.902;12.308;2023-08-01T02:00:00;4.45;;;2.20;;
69170;SDS011;56279;47.902;12.308;2023-08-01T02:02:02;5.35;;;2.35;;
69170;SDS011;56279;47.902;12.308;2023-08-01T02:04:04;6.40;;;2.28;;
69170;SDS011;56279;47.902;12.308;2023-08-01T02:06:06;6.32;;;2.05;;
69170;SDS011;56279;47.902;12.308;2023-08-01T02:08:07;4.70;;;2.13;;
69170;SDS011;56279;47.902;12.308;2023-08-01T02:10:09;4.32;;;2.20;;
69170;SDS011;56279;47.902;12.308;2023-08-01T02:12:10;4.40;;;2.30;;
69170;SDS011;56279;47.902;12.308;2023-08-01T02:14:14;5.57;;;2.30;;
69170;SDS011;56279;47.902;12.308;2023-08-01T02:16:16;7.88;;;2.60;;
69170;SDS011;56279;47.902;12.308;2023-08-01T02:18:19;5.97;;;2.50;;
69170;SDS011;56279;47.902;12.308;2023-08-01T02:20:20;5.43;;;2.35;;
69170;SDS011;56279;47.902;12.308;2023-08-01T02:22:22;6.18;;;2.53;;
69170;SDS011;56279;47.902;12.308;2023-08-01T02:24:27;4.43;;;2.40;;
69170;SDS011;56279;47.902;12.308;2023-08-01T02:26:28;5.10;;;2.33;;
69170;SDS011;56279;47.902;12.308;2023-08-01T02:28:30;4.57;;;2.23;;
69170;SDS011;56279;47.902;12.308;2023-08-01T02:30:31;4.65;;;2.10;;
69170;SDS011;56279;47.902;12.308;2023-08-01T02:32:33;4.47;;;2.13;;
69170;SDS011;56279;47.902;12.308;2023-08-01T02:34:34;4.93;;;2.33;;
69170;SDS011;56279;47.902;12.308;2023-08-01T02:36:35;3.95;;;2.03;;
69170;SDS011;56279;47.902;12.308;2023-08-01T02:38:36;5.03;;;2.33;;
69170;SDS011;56279;47.902;12.308;2023-08-01T02:40:38;4.68;;;2.08;;
69170;SDS011;56279;47.902;12.308;2023-08-01T02:42:39;5.53;;;2.17;;
69170;SDS011;56279;47.902;12.308;2023-08-01T02:44:40;4.72;;;2.05;;
69170;SDS011;56279;47.902;12.308;2023-08-01T02:46:42;4.07;;;2.35;;
69170;SDS011;56279;47.902;12.308;2023-08-01T02:48:43;5.20;;;2.30;;
69170;SDS011;56279;47.902;12.308;2023-08-01T02:50:45;5.38;;;2.30;;
69170;SDS011;56279;47.902;12.308;2023-08-01T02:52:46;5.80;;;2.40;;
69170;SDS011;56279;47.902;12.308;2023-08-01T02:54:48;6.15;;;2.70;;
69170;SDS011;56279;47.902;12.308;2023-08-01T02:56:49;5.10;;;2.50;;
69170;SDS011;56279;47.902;12.308;2023-08-01T02:58:52;6.00;;;2.47;;
69170;SDS011;56279;47.902;12.308;2023-08-01T03:00:53;6.78;;;2.33;;
69170;SDS011;56279;47.902;12.308;2023-08-01T03:02:54;5.95;;;2.25;;
69170;SDS011;56279;47.902;12.308;2023-08-01T03:04:55;5.25;;;2.00;;
69170;SDS011;56279;47.902;12.308;2023-08-01T03:06:58;7.43;;;2.42;;
69170;SDS011;56279;47.902;12.308;2023-08-01T03:08:59;6.13;;;2.53;;
69170;SDS011;56279;47.902;12.308;2023-08-01T03:11:01;5.88;;;2.38;;
69170;SDS011;56279;47.902;12.308;2023-08-01T03:13:03;5.00;;;2.05;;
69170;SDS011;56279;47.902;12.308;2023-08-01T03:15:04;5.15;;;2.20;;
69170;SDS011;56279;47.902;12.308;2023-08-01T03:17:09;4.55;;;2.60;;
69170;SDS011;56279;47.902;12.308;2023-08-01T03:19:11;4.53;;;2.07;;
69170;SDS011;56279;47.902;12.308;2023-08-01T03:21:12;5.03;;;2.15;;
69170;SDS011;56279;47.902;12.308;2023-08-01T03:23:13;4.72;;;2.10;;
69170;SDS011;56279;47.902;12.308;2023-08-01T03:25:17;4.10;;;2.15;;
69170;SDS011;56279;47.902;12.308;2023-08-01T03:27:19;4.60;;;2.22;;
69170;SDS011;56279;47.902;12.308;2023-08-01T03:29:20;6.10;;;3.27;;
69170;SDS011;56279;47.902;12.308;2023-08-01T03:31:22;5.93;;;2.38;;
69170;SDS011;56279;47.902;12.308;2023-08-01T03:33:24;5.78;;;2.58;;
69170;SDS011;56279;47.902;12.308;2023-08-01T03:35:25;6.15;;;2.05;;
69170;SDS011;56279;47.902;12.308;2023-08-01T03:37:26;4.10;;;2.20;;
69170;SDS011;56279;47.902;12.308;2023-08-01T03:39:28;6.30;;;2.80;;
69170;SDS011;56279;47.902;12.308;2023-08-01T03:41:31;4.63;;;2.10;;
69170;SDS011;56279;47.902;12.308;2023-08-01T03:43:33;5.20;;;2.28;;
69170;SDS011;56279;47.902;12.308;2023-08-01T03:45:34;6.22;;;2.60;;
69170;SDS011;56279;47.902;12.308;2023-08-01T03:47:35;5.78;;;2.40;;
69170;SDS011;56279;47.902;12.308;2023-08-01T03:49:37;5.37;;;2.37;;
69170;SDS011;56279;47.902;12.308;2023-08-01T03:51:39;4.03;;;1.92;;
69170;SDS011;56279;47.902;12.308;2023-08-01T03:53:41;6.78;;;2.42;;
69170;SDS011;56279;47.902;12.308;2023-08-01T03:55:43;5.13;;;2.63;;
69170;SDS011;56279;47.902;12.308;2023-08-01T03:57:45;5.03;;;2.67;;
69170;SDS011;56279;47.902;12.308;2023-08-01T03:59:46;6.80;;;2.40;;
69170;SDS011;56279;47.902;12.308;2023-08-01T04:01:48;6.35;;;2.58;;
69170;SDS011;56279;47.902;12.308;2023-08-01T04:03:49;5.30;;;2.30;;
69170;SDS011;56279;47.902;12.308;2023-08-01T04:05:50;4.60;;;2.20;;
69170;SDS011;56279;47.902;12.308;2023-08-01T04:07:52;4.72;;;2.50;;
69170;SDS011;56279;47.902;12.308;2023-08-01T04:09:57;6.20;;;2.23;;
69170;SDS011;56279;47.902;12.308;2023-08-01T04:11:58;5.05;;;2.10;;
69170;SDS011;56279;47.902;12.308;2023-08-01T04:13:59;4.97;;;2.67;;
69170;SDS011;56279;47.902;12.308;2023-08-01T04:16:00;5.15;;;2.15;;
69170;SDS011;56279;47.902;12.308;2023-08-01T04:18:01;4.80;;;2.47;;
69170;SDS011;56279;47.902;12.308;2023-08-01T04:20:03;4.37;;;2.00;;
69170;SDS011;56279;47.902;12.308;2023-08-01T04:22:05;5.15;;;2.33;;
69170;SDS011;56279;47.902;12.308;2023-08-01T04:24:06;4.35;;;2.22;;
69170;SDS011;56279;47.902;12.308;2023-08-01T04:26:07;4.45;;;2.30;;
69170;SDS011;56279;47.902;12.308;2023-08-01T04:28:08;4.50;;;2.67;;
69170;SDS011;56279;47.902;12.308;2023-08-01T04:30:10;5.53;;;2.60;;
69170;SDS011;56279;47.902;12.308;2023-08-01T04:32:11;5.50;;;2.70;;
69170;SDS011;56279;47.902;12.308;2023-08-01T04:34:14;5.93;;;2.80;;
69170;SDS011;56279;47.902;12.308;2023-08-01T04:36:16;4.20;;;2.22;;
69170;SDS011;56279;47.902;12.308;2023-08-01T04:38:17;5.15;;;2.30;;
69170;SDS011;56279;47.902;12.308;2023-08-01T04:40:18;8.50;;;2.53;;
69170;SDS011;56279;47.902;12.308;2023-08-01T04:42:19;4.10;;;2.20;;
69170;SDS011;56279;47.902;12.308;2023-08-01T04:44:21;6.72;;;2.72;;
69170;SDS011;56279;47.902;12.308;2023-08-01T04:46:22;4.78;;;2.55;;
69170;SDS011;56279;47.902;12.308;2023-08-01T04:48:23;5.35;;;2.58;;
69170;SDS011;56279;47.902;12.308;2023-08-01T04:50:24;6.73;;;2.23;;
69170;SDS011;56279;47.902;12.308;2023-08-01T04:52:26;5.45;;;2.50;;
69170;SDS011;56279;47.902;12.308;2023-08-01T04:54:27;5.95;;;2.53;;
69170;SDS011;56279;47.902;12.308;2023-08-01T04:56:28;4.80;;;2.30;;
69170;SDS011;56279;47.902;12.308;2023-08-01T04:58:29;5.88;;;2.83;;
69170;SDS011;56279;47.902;12.308;2023-08-01T05:00:31;5.47;;;2.20;;
69170;SDS011;56279;47.902;12.308;2023-08-01T05:02:32;4.75;;;2.40;;
69170;SDS011;56279;47.902;12.308;2023-08-01T05:04:33;5.18;;;2.70;;
69170;SDS011;56279;47.902;12.308;2023-08-01T05:06:35;6.90;;;2.80;;
69170;SDS011;56279;47.902;12.308;2023-08-01T05:08:37;5.00;;;2.55;;
69170;SDS011;56279;47.902;12.308;2023-08-01T05:10:38;5.70;;;2.53;;
69170;SDS011;56279;47.902;12.308;2023-08-01T05:12:39;7.13;;;3.00;;
69170;SDS011;56279;47.902;12.308;2023-08-01T05:14:48;9.02;;;2.92;;
69170;SDS011;56279;47.902;12.308;2023-08-01T05:16:49;5.45;;;2.58;;
69170;SDS011;56279;47.902;12.308;2023-08-01T05:18:51;5.70;;;2.88;;
69170;SDS011;56279;47.902;12.308;2023-08-01T05:20:52;7.90;;;3.10;;
69170;SDS011;56279;47.902;12.308;2023-08-01T05:22:53;7.60;;;3.38;;
69170;SDS011;56279;47.902;12.308;2023-08-01T05:24:54;8.85;;;2.80;;
69170;SDS011;56279;47.902;12.308;2023-08-01T05:26:56;7.82;;;2.97;;
69170;SDS011;56279;47.902;12.308;2023-08-01T05:28:57;7.57;;;2.67;;
69170;SDS011;56279;47.902;12.308;2023-08-01T05:30:58;5.90;;;2.93;;
69170;SDS011;56279;47.902;12.308;2023-08-01T05:33:00;7.05;;;2.92;;
69170;SDS011;56279;47.902;12.308;2023-08-01T05:35:01;7.22;;;3.10;;
69170;SDS011;56279;47.902;12.308;2023-08-01T05:37:02;7.82;;;3.40;;
69170;SDS011;56279;47.902;12.308;2023-08-01T05:39:04;5.57;;;2.60;;
69170;SDS011;56279;47.902;12.308;2023-08-01T05:41:05;5.70;;;2.80;;
69170;SDS011;56279;47.902;12.308;2023-08-01T05:43:07;6.43;;;2.63;;
69170;SDS011;56279;47.902;12.308;2023-08-01T05:45:09;7.30;;;3.50;;
69170;SDS011;56279;47.902;12.308;2023-08-01T05:47:12;7.28;;;2.90;;
69170;SDS011;56279;47.902;12.308;2023-08-01T05:49:13;5.22;;;2.63;;
69170;SDS011;56279;47.902;12.308;2023-08-01T05:51:15;5.50;;;2.70;;
69170;SDS011;56279;47.902;12.308;2023-08-01T05:53:16;5.75;;;3.00;;
69170;SDS011;56279;47.902;12.308;2023-08-01T05:55:19;7.10;;;2.95;;
69170;SDS011;56279;47.902;12.308;2023-08-01T05:57:20;6.78;;;3.10;;
69170;SDS011;56279;47.902;12.308;2023-08-01T05:59:22;5.82;;;3.00;;
69170;SDS011;56279;47.902;12.308;2023-08-01T06:01:23;7.30;;;3.20;;
69170;SDS011;56279;47.902;12.308;2023-08-01T06:03:25;5.85;;;2.90;;
69170;SDS011;56279;47.902;12.308;2023-08-01T06:05:26;6.90;;;2.85;;
69170;SDS011;56279;47.902;12.308;2023-08-01T06:07:28;5.20;;;2.60;;
69170;SDS011;56279;47.902;12.308;2023-08-01T06:09:29;5.47;;;2.92;;
69170;SDS011;56279;47.902;12.308;2023-08-01T06:11:30;5.83;;;2.70;;
69170;SDS011;56279;47.902;12.308;2023-08-01T06:13:33;5.68;;;2.70;;
69170;SDS011;56279;47.902;12.308;2023-08-01T06:15:34;6.25;;;3.45;;
69170;SDS011;56279;47.902;12.308;2023-08-01T06:17:35;5.15;;;2.67;;
69170;SDS011;56279;47.902;12.308;2023-08-01T06:19:36;5.15;;;2.80;;
69170;SDS011;56279;47.902;12.308;2023-08-01T06:21:38;5.83;;;2.90;;
69170;SDS011;56279;47.902;12.308;2023-08-01T06:23:39;7.03;;;2.95;;
69170;SDS011;56279;47.902;12.308;2023-08-01T06:25:40;8.07;;;3.22;;
69170;SDS011;56279;47.902;12.308;2023-08-01T06:27:42;6.10;;;2.50;;
69170;SDS011;56279;47.902;12.308;2023-08-01T06:29:44;8.02;;;2.70;;
69170;SDS011;56279;47.902;12.308;2023-08-01T06:31:45;6.00;;;3.00;;
69170;SDS011;56279;47.902;12.308;2023-08-01T06:33:46;6.03;;;2.47;;
69170;SDS011;56279;47.902;12.308;2023-08-01T06:35:48;5.65;;;2.83;;
69170;SDS011;56279;47.902;12.308;2023-08-01T06:37:50;5.88;;;2.95;;
69170;SDS011;56279;47.902;12.308;2023-08-01T06:39:51;5.28;;;2.83;;
69170;SDS011;56279;47.902;12.308;2023-08-01T06:41:52;5.40;;;2.80;;
69170;SDS011;56279;47.902;12.308;2023-08-01T06:43:53;6.55;;;2.95;;
69170;SDS011;56279;47.902;12.308;2023-08-01T06:45:55;7.65;;;3.03;;
69170;SDS011;56279;47.902;12.308;2023-08-01T06:47:56;7.53;;;3.20;;
69170;SDS011;56279;47.902;12.308;2023-08-01T06:49:57;7.47;;;3.20;;
69170;SDS011;56279;47.902;12.308;2023-08-01T06:51:58;5.90;;;3.03;;
69170;SDS011;56279;47.902;12.308;2023-08-01T06:54:00;5.53;;;2.95;;
69170;SDS011;56279;47.902;12.308;2023-08-01T06:56:01;7.72;;;3.53;;
69170;SDS011;56279;47.902;12.308;2023-08-01T06:58:02;5.25;;;2.80;;
69170;SDS011;56279;47.902;12.308;2023-08-01T07:00:03;5.90;;;2.97;;
69170;SDS011;56279;47.902;12.308;2023-08-01T07:02:06;6.20;;;2.97;;
69170;SDS011;56279;47.902;12.308;2023-08-01T07:04:08;5.95;;;2.97;;
69170;SDS011;56279;47.902;12.308;2023-08-01T07:06:10;5.70;;;3.08;;
69170;SDS011;56279;47.902;12.308;2023-08-01T07:08:12;7.05;;;3.20;;
69170;SDS011;56279;47.902;12.308;2023-08-01T07:10:14;5.35;;;2.90;;
69170;SDS011;56279;47.902;12.308;2023-08-01T07:12:15;5.47;;;2.80;;
69170;SDS011;56279;47.902;12.308;2023-08-01T07:14:16;6.45;;;2.67;;
69170;SDS011;56279;47.902;12.308;2023-08-01T07:16:18;6.20;;;3.13;;
69170;SDS011;56279;47.902;12.308;2023-08-01T07:18:19;6.22;;;3.20;;
69170;SDS011;56279;47.902;12.308;2023-08-01T07:20:20;5.32;;;2.85;;
69170;SDS011;56279;47.902;12.308;2023-08-01T07:22:21;6.07;;;2.77;;
69170;SDS011;56279;47.902;12.308;2023-08-01T07:24:23;6.82;;;3.20;;
69170;SDS011;56279;47.902;12.308;2023-08-01T07:26:24;6.85;;;3.10;;
69170;SDS011;56279;47.902;12.308;2023-08-01T07:28:25;7.43;;;3.63;;
69170;SDS011;56279;47.902;12.308;2023-08-01T07:30:27;5.60;;;3.00;;
69170;SDS011;56279;47.902;12.308;2023-08-01T07:32:28;5.07;;;2.50;;
69170;SDS011;56279;47.902;12.308;2023-08-01T07:34:29;6.15;;;2.90;;
69170;SDS011;56279;47.902;12.308;2023-08-01T07:36:31;7.85;;;2.75;;
69170;SDS011;56279;47.902;12.308;2023-08-01T07:38:32;5.40;;;2.75;;
69170;SDS011;56279;47.902;12.308;2023-08-01T07:40:35;4.88;;;2.47;;
69170;SDS011;56279;47.902;12.308;2023-08-01T07:42:37;7.33;;;3.10;;
69170;SDS011;56279;47.902;12.308;2023-08-01T07:44:38;5.38;;;2.60;;
69170;SDS011;56279;47.902;12.308;2023-08-01T07:46:39;6.18;;;2.97;;
69170;SDS011;56279;47.902;12.308;2023-08-01T07:48:41;7.22;;;2.88;;
69170;SDS011;56279;47.902;12.308;2023-08-01T07:50:42;5.85;;;2.88;;
69170;SDS011;56279;47.902;12.308;2023-08-01T07:52:44;5.80;;;2.70;;
69170;SDS011;56279;47.902;12.308;2023-08-01T07:54:45;6.00;;;2.92;;
69170;SDS011;56279;47.902;12.308;2023-08-01T07:56:46;5.65;;;2.58;;
69170;SDS011;56279;47.902;12.308;2023-08-01T07:58:49;4.93;;;2.63;;
69170;SDS011;56279;47.902;12.308;2023-08-01T08:00:50;9.30;;;3.05;;
69170;SDS011;56279;47.902;12.308;2023-08-01T08:02:52;5.80;;;2.73;;
69170;SDS011;56279;47.902;12.308;2023-08-01T08:04:54;6.00;;;2.85;;
69170;SDS011;56279;47.902;12.308;2023-08-01T08:06:55;5.35;;;2.67;;
69170;SDS011;56279;47.902;12.308;2023-08-01T08:09:00;5.80;;;2.75;;
69170;SDS011;56279;47.902;12.308;2023-08-01T08:11:02;6.82;;;3.35;;
69170;SDS011;56279;47.902;12.308;2023-08-01T08:13:03;5.93;;;3.10;;
69170;SDS011;56279;47.902;12.308;2023-08-01T08:15:05;6.63;;;3.00;;
69170;SDS011;56279;47.902;12.308;2023-08-01T08:17:06;6.72;;;2.88;;
69170;SDS011;56279;47.902;12.308;2023-08-01T08:19:08;5.80;;;2.78;;
69170;SDS011;56279;47.902;12.308;2023-08-01T08:21:10;6.13;;;3.00;;
69170;SDS011;56279;47.902;12.308;2023-08-01T08:23:11;6.43;;;2.60;;
69170;SDS011;56279;47.902;12.308;2023-08-01T08:25:16;5.00;;;2.67;;
69170;SDS011;56279;47.902;12.308;2023-08-01T08:27:17;5.68;;;2.83;;
69170;SDS011;56279;47.902;12.308;2023-08-01T08:29:19;6.22;;;2.70;;
69170;SDS011;56279;47.902;12.308;2023-08-01T08:31:20;6.13;;;2.45;;
69170;SDS011;56279;47.902;12.308;2023-08-01T08:33:21;6.63;;;2.80;;
69170;SDS011;56279;47.902;12.308;2023-08-01T08:35:23;5.60;;;3.20;;
69170;SDS011;56279;47.902;12.308;2023-08-01T08:37:24;4.82;;;2.42;;
69170;SDS011;56279;47.902;12.308;2023-08-01T08:39:25;6.53;;;3.05;;
69170;SDS011;56279;47.902;12.308;2023-08-01T08:41:27;5.07;;;3.17;;
69170;SDS011;56279;47.902;12.308;2023-08-01T08:43:31;5.80;;;2.70;;
69170;SDS011;56279;47.902;12.308;2023-08-01T08:45:34;5.28;;;2.80;;
69170;SDS011;56279;47.902;12.308;2023-08-01T08:47:38;7.13;;;3.08;;
69170;SDS011;56279;47.902;12.308;2023-08-01T08:49:43;5.55;;;3.13;;
69170;SDS011;56279;47.902;12.308;2023-08-01T08:51:47;5.13;;;2.90;;
69170;SDS011;56279;47.902;12.308;2023-08-01T08:53:49;5.47;;;2.73;;
69170;SDS011;56279;47.902;12.308;2023-08-01T08:55:54;7.30;;;2.80;;
69170;SDS011;56279;47.902;12.308;2023-08-01T08:57:56;5.68;;;3.10;;
69170;SDS011;56279;47.902;12.308;2023-08-01T08:59:58;5.50;;;2.63;;
69170;SDS011;56279;47.902;12.308;2023-08-01T09:02:06;4.72;;;2.65;;
69170;SDS011;56279;47.902;12.308;2023-08-01T09:04:08;6.63;;;2.70;;
69170;SDS011;56279;47.902;12.308;2023-08-01T09:06:12;5.18;;;2.70;;
69170;SDS011;56279;47.902;12.308;2023-08-01T09:08:20;6.32;;;2.70;;
69170;SDS011;56279;47.902;12.308;2023-08-01T09:10:22;5.95;;;2.67;;
69170;SDS011;56279;47.902;12.308;2023-08-01T09:12:24;6.35;;;2.70;;
69170;SDS011;56279;47.902;12.308;2023-08-01T09:14:27;5.60;;;2.73;;
69170;SDS011;56279;47.902;12.308;2023-08-01T09:16:28;4.90;;;2.38;;
69170;SDS011;56279;47.902;12.308;2023-08-01T09:18:29;6.85;;;3.30;;
69170;SDS011;56279;47.902;12.308;2023-08-01T09:20:30;5.20;;;2.55;;
69170;SDS011;56279;47.902;12.308;2023-08-01T09:22:44;6.60;;;3.15;;
69170;SDS011;56279;47.902;12.308;2023-08-01T09:24:52;5.77;;;2.40;;
69170;SDS011;56279;47.902;12.308;2023-08-01T09:27:01;6.68;;;2.70;;
69170;SDS011;56279;47.902;12.308;2023-08-01T09:29:04;6.35;;;3.10;;
69170;SDS011;56279;47.902;12.308;2023-08-01T09:31:06;5.45;;;2.58;;
69170;SDS011;56279;47.902;12.308;2023-08-01T09:33:08;5.32;;;2.70;;
69170;SDS011;56279;47.902;12.308;2023-08-01T09:35:10;6.13;;;2.60;;
69170;SDS011;56279;47.902;12.308;2023-08-01T09:37:12;5.40;;;2.58;;
69170;SDS011;56279;47.902;12.308;2023-08-01T09:39:16;6.10;;;2.90;;
69170;SDS011;56279;47.902;12.308;2023-08-01T09:41:19;5.47;;;2.72;;
69170;SDS011;56279;47.902;12.308;2023-08-01T09:43:21;5.13;;;2.45;;
69170;SDS011;56279;47.902;12.308;2023-08-01T09:45:22;5.90;;;2.73;;
69170;SDS011;56279;47.902;12.308;2023-08-01T09:47:23;5.63;;;2.70;;
69170;SDS011;56279;47.902;12.308;2023-08-01T09:49:24;5.63;;;2.85;;
69170;SDS011;56279;47.902;12.308;2023-08-01T09:51:26;5.43;;;2.50;;
69170;SDS011;56279;47.902;12.308;2023-08-01T09:53:27;5.35;;;2.83;;
69170;SDS011;56279;47.902;12.308;2023-08-01T09:55:32;5.37;;;2.53;;
69170;SDS011;56279;47.902;12.308;2023-08-01T09:57:33;6.10;;;2.70;;
69170;SDS011;56279;47.902;12.308;2023-08-01T09:59:38;5.80;;;3.05;;
69170;SDS011;56279;47.902;12.308;2023-08-01T10:01:40;6.28;;;3.40;;
69170;SDS011;56279;47.902;12.308;2023-08-01T10:03:47;6.72;;;2.83;;
69170;SDS011;56279;47.902;12.308;2023-08-01T10:05:52;5.37;;;2.50;;
69170;SDS011;56279;47.902;12.308;2023-08-01T10:07:55;6.90;;;3.10;;
69170;SDS011;56279;47.902;12.308;2023-08-01T10:10:00;5.03;;;2.80;;
69170;SDS011;56279;47.902;12.308;2023-08-01T10:12:03;6.18;;;2.85;;
69170;SDS011;56279;47.902;12.308;2023-08-01T10:14:06;7.25;;;3.40;;
69170;SDS011;56279;47.902;12.308;2023-08-01T10:16:07;5.63;;;3.00;;
69170;SDS011;56279;47.902;12.308;2023-08-01T10:18:10;7.07;;;3.00;;
69170;SDS011;56279;47.902;12.308;2023-08-01T10:20:12;7.93;;;3.05;;
69170;SDS011;56279;47.902;12.308;2023-08-01T10:22:16;6.95;;;2.95;;
69170;SDS011;56279;47.902;12.308;2023-08-01T10:24:18;5.95;;;3.10;;
69170;SDS011;56279;47.902;12.308;2023-08-01T10:26:20;7.60;;;3.20;;
69170;SDS011;56279;47.902;12.308;2023-08-01T10:28:30;6.57;;;2.92;;
69170;SDS011;56279;47.902;12.308;2023-08-01T10:30:32;5.95;;;2.75;;
69170;SDS011;56279;47.902;12.308;2023-08-01T10:32:34;6.05;;;2.80;;
69170;SDS011;56279;47.902;12.308;2023-08-01T10:34:39;7.72;;;2.95;;
69170;SDS011;56279;47.902;12.308;2023-08-01T10:36:54;6.10;;;2.70;;
69170;SDS011;56279;47.902;12.308;2023-08-01T10:38:57;7.50;;;3.40;;
69170;SDS011;56279;47.902;12.308;2023-08-01T10:40:59;6.60;;;3.55;;
69170;SDS011;56279;47.902;12.308;2023-08-01T10:43:00;5.95;;;2.88;;
69170;SDS011;56279;47.902;12.308;2023-08-01T10:45:02;6.28;;;2.97;;
69170;SDS011;56279;47.902;12.308;2023-08-01T10:47:04;7.30;;;3.50;;
69170;SDS011;56279;47.902;12.308;2023-08-01T10:49:05;7.35;;;3.03;;
69170;SDS011;56279;47.902;12.308;2023-08-01T10:51:07;5.18;;;2.78;;
69170;SDS011;56279;47.902;12.308;2023-08-01T10:53:08;7.15;;;3.25;;
69170;SDS011;56279;47.902;12.308;2023-08-01T10:55:10;6.53;;;2.97;;
69170;SDS011;56279;47.902;12.308;2023-08-01T10:57:15;8.10;;;3.20;;
69170;SDS011;56279;47.902;12.308;2023-08-01T10:59:19;6.32;;;3.10;;
69170;SDS011;56279;47.902;12.308;2023-08-01T11:01:21;7.47;;;3.17;;
69170;SDS011;56279;47.902;12.308;2023-08-01T11:03:22;5.88;;;2.88;;
69170;SDS011;56279;47.902;12.308;2023-08-01T11:05:35;6.75;;;3.28;;
69170;SDS011;56279;47.902;12.308;2023-08-01T11:07:36;6.67;;;3.07;;
69170;SDS011;56279;47.902;12.308;2023-08-01T11:09:37;5.90;;;3.03;;
69170;SDS011;56279;47.902;12.308;2023-08-01T11:11:38;6.53;;;3.40;;
69170;SDS011;56279;47.902;12.308;2023-08-01T11:13:41;6.22;;;3.10;;
69170;SDS011;56279;47.902;12.308;2023-08-01T11:15:42;7.07;;;3.30;;
69170;SDS011;56279;47.902;12.308;2023-08-01T11:17:48;8.57;;;3.97;;
69170;SDS011;56279;47.902;12.308;2023-08-01T11:20:00;9.45;;;3.50;;
69170;SDS011;56279;47.902;12.308;2023-08-01T11:22:08;8.27;;;3.38;;
69170;SDS011;56279;47.902;12.308;2023-08-01T11:24:11;6.85;;;3.33;;
69170;SDS011;56279;47.902;12.308;2023-08-01T11:26:12;6.40;;;2.97;;
69170;SDS011;56279;47.902;12.308;2023-08-01T11:28:15;8.23;;;3.37;;
69170;SDS011;56279;47.902;12.308;2023-08-01T11:30:17;8.63;;;3.55;;
69170;SDS011;56279;47.902;12.308;2023-08-01T11:32:19;6.30;;;3.10;;
69170;SDS011;56279;47.902;12.308;2023-08-01T11:34:24;6.85;;;3.08;;
69170;SDS011;56279;47.902;12.308;2023-08-01T11:36:26;6.65;;;3.40;;
69170;SDS011;56279;47.902;12.308;2023-08-01T11:38:29;5.90;;;2.93;;
69170;SDS011;56279;47.902;12.308;2023-08-01T11:40:34;7.53;;;2.90;;
69170;SDS011;56279;47.902;12.308;2023-08-01T11:42:35;6.45;;;3.25;;
69170;SDS011;56279;47.902;12.308;2023-08-01T11:44:38;6.38;;;2.80;;
69170;SDS011;56279;47.902;12.308;2023-08-01T11:46:40;6.13;;;3.30;;
69170;SDS011;56279;47.902;12.308;2023-08-01T11:48:45;7.93;;;2.97;;
69170;SDS011;56279;47.902;12.308;2023-08-01T11:50:56;6.25;;;2.97;;
69170;SDS011;56279;47.902;12.308;2023-08-01T11:53:01;7.35;;;3.22;;
69170;SDS011;56279;47.902;12.308;2023-08-01T11:55:02;6.32;;;3.20;;
69170;SDS011;56279;47.902;12.308;2023-08-01T11:57:04;5.70;;;2.97;;
69170;SDS011;56279;47.902;12.308;2023-08-01T12:01:13;9.40;;;3.40;;
69170;SDS011;56279;47.902;12.308;2023-08-01T12:03:15;8.65;;;4.32;;
69170;SDS011;56279;47.902;12.308;2023-08-01T12:05:23;7.00;;;3.50;;